createdAt,value
2022-09-11T00:01:36.579Z,10.27
2022-09-11T00:04:04.201Z,8.37
2022-09-11T00:06:31.198Z,11.67
2022-09-11T00:09:04.505Z,9.80
2022-09-11T00:11:42.048Z,11.43
2022-09-11T00:14:13.771Z,7.33
2022-09-11T00:16:46.007Z,10.30
2022-09-11T00:19:19.908Z,14.50
2022-09-11T00:21:50.404Z,8.77
2022-09-11T00:24:17.730Z,12.23
2022-09-11T00:26:47.388Z,8.13
2022-09-11T00:29:14.371Z,9.90
2022-09-11T00:31:41.785Z,8.07
2022-09-11T00:34:09.518Z,10.57
2022-09-11T00:36:37.572Z,12.97
2022-09-11T00:39:05.012Z,9.70
2022-09-11T00:41:40.003Z,9.27
2022-09-11T00:44:28.314Z,12.70
2022-09-11T00:47:03.173Z,10.33
2022-09-11T00:49:39.679Z,14.07
2022-09-11T00:52:31.039Z,11.67
2022-09-11T00:55:04.949Z,13.40
2022-09-11T00:58:01.777Z,10.50
2022-09-11T01:00:28.696Z,9.23
2022-09-11T01:02:56.792Z,13.07
2022-09-11T01:05:28.036Z,9.67
2022-09-11T01:07:56.551Z,15.40
2022-09-11T01:11:07.295Z,13.50
2022-09-11T01:14:34.513Z,15.63
2022-09-11T01:17:20.398Z,11.83
2022-09-11T01:20:33.282Z,10.50
2022-09-11T01:23:31.564Z,11.07
2022-09-11T01:26:32.603Z,15.17
2022-09-11T01:29:25.422Z,10.83
2022-09-11T01:32:11.705Z,11.97
2022-09-11T01:34:55.534Z,23.40
2022-09-11T01:37:52.031Z,14.07
2022-09-11T01:40:36.699Z,13.43
2022-09-11T01:43:17.208Z,16.73
2022-09-11T01:45:47.201Z,12.60
2022-09-11T01:48:27.025Z,12.57
2022-09-11T01:50:56.971Z,14.13
2022-09-11T01:53:33.432Z,10.87
2022-09-11T01:56:11.011Z,13.80
2022-09-11T01:58:39.536Z,26.53
2022-09-11T02:01:23.139Z,15.10
2022-09-11T02:04:37.704Z,28.60
2022-09-11T02:07:16.904Z,18.27
2022-09-11T02:10:03.153Z,25.77
2022-09-11T02:13:36.992Z,25.17
2022-09-11T02:16:52.747Z,22.23
2022-09-11T02:19:29.863Z,21.37
2022-09-11T02:22:00.243Z,20.13
2022-09-11T02:24:28.411Z,9.70
2022-09-11T02:27:08.419Z,19.50
2022-09-11T02:29:36.982Z,22.87
2022-09-11T02:32:04.613Z,21.60
2022-09-11T02:34:39.904Z,17.00
2022-09-11T02:37:41.940Z,12.30
2022-09-11T02:40:51.591Z,22.33
2022-09-11T02:43:42.947Z,19.17
2022-09-11T02:47:05.515Z,13.77
2022-09-11T02:50:10.385Z,32.47
2022-09-11T02:53:10.553Z,35.93
2022-09-11T02:56:07.982Z,23.60
2022-09-11T02:58:46.313Z,16.23
2022-09-11T03:01:13.431Z,21.83
2022-09-11T03:03:46.439Z,21.53
2022-09-11T03:06:27.290Z,25.67
2022-09-11T03:08:54.356Z,23.53
2022-09-11T03:11:21.460Z,38.23
2022-09-11T03:13:48.457Z,16.40
2022-09-11T03:16:15.450Z,22.73
2022-09-11T03:18:42.416Z,13.60
2022-09-11T03:21:11.371Z,25.20
2022-09-11T03:23:38.616Z,20.10
2022-09-11T03:26:05.631Z,25.37
2022-09-11T03:28:34.090Z,20.30
2022-09-11T03:31:01.130Z,18.83
2022-09-11T03:33:28.144Z,27.60
2022-09-11T03:35:55.207Z,23.20
2022-09-11T03:38:22.198Z,21.80
2022-09-11T03:40:49.273Z,20.00
2022-09-11T03:43:16.704Z,24.93
2022-09-11T03:45:44.772Z,32.73
2022-09-11T03:48:11.916Z,19.13
2022-09-11T03:50:38.864Z,23.27
2022-09-11T03:53:05.857Z,13.93
2022-09-11T03:55:33.194Z,16.23
2022-09-11T03:58:00.399Z,22.07
2022-09-11T04:00:27.741Z,36.73
2022-09-11T04:02:58.106Z,45.57
2022-09-11T04:05:25.333Z,46.70
2022-09-11T04:07:55.089Z,53.33
2022-09-11T04:10:22.372Z,77.60
2022-09-11T04:12:49.341Z,67.23
2022-09-11T04:15:16.407Z,70.53
2022-09-11T04:17:43.505Z,62.57
2022-09-11T04:20:10.929Z,48.93
2022-09-11T04:22:39.327Z,74.43
2022-09-11T04:25:07.611Z,64.43
2022-09-11T04:27:34.675Z,61.07
2022-09-11T04:30:01.589Z,59.47
2022-09-11T04:32:29.214Z,64.73
2022-09-11T04:34:56.326Z,52.30
2022-09-11T04:37:23.305Z,51.37
2022-09-11T04:39:50.490Z,48.67
2022-09-11T04:42:17.560Z,48.87
2022-09-11T04:44:44.484Z,43.57
2022-09-11T04:47:11.434Z,53.17
2022-09-11T04:49:38.393Z,51.13
2022-09-11T04:52:07.223Z,58.90
2022-09-11T04:54:34.217Z,50.77
2022-09-11T04:57:04.294Z,66.67
2022-09-11T04:59:31.263Z,53.60
2022-09-11T05:01:58.258Z,58.23
2022-09-11T05:04:26.538Z,53.07
2022-09-11T05:06:53.698Z,52.77
2022-09-11T05:09:20.823Z,49.17
2022-09-11T05:11:48.297Z,98.07
2022-09-11T05:14:15.327Z,52.87
2022-09-11T05:16:43.713Z,58.43
2022-09-11T05:19:11.035Z,49.07
2022-09-11T05:21:38.264Z,74.90
2022-09-11T05:24:05.312Z,53.20
2022-09-11T05:26:37.131Z,73.00
2022-09-11T05:29:14.968Z,59.93
2022-09-11T05:31:42.594Z,83.47
2022-09-11T05:34:09.804Z,34.97
2022-09-11T05:36:36.942Z,51.00
2022-09-11T05:39:04.467Z,126.77
2022-09-11T05:41:31.441Z,88.90
2022-09-11T05:43:59.175Z,77.90
2022-09-11T05:46:26.325Z,89.17
2022-09-11T05:48:53.645Z,96.57
2022-09-11T05:51:22.307Z,63.00
2022-09-11T05:53:54.420Z,59.20
2022-09-11T05:56:26.145Z,49.13
2022-09-11T05:58:53.312Z,53.80
2022-09-11T06:01:24.917Z,65.57
2022-09-11T06:03:52.862Z,57.57
2022-09-11T06:06:22.923Z,46.73
2022-09-11T06:08:51.749Z,30.83
2022-09-11T06:11:20.764Z,36.30
2022-09-11T06:13:49.202Z,48.60
2022-09-11T06:16:23.136Z,49.03
2022-09-11T06:18:53.035Z,45.30
2022-09-11T06:21:24.260Z,44.03
2022-09-11T06:23:53.162Z,46.07
2022-09-11T06:26:26.549Z,43.73
2022-09-11T06:28:54.281Z,34.17
2022-09-11T06:31:25.766Z,26.33
2022-09-11T06:33:56.074Z,36.00
2022-09-11T06:36:32.561Z,33.10
2022-09-11T06:38:59.636Z,35.93
2022-09-11T06:41:28.170Z,41.47
2022-09-11T06:43:55.295Z,40.13
2022-09-11T06:46:24.977Z,39.57
2022-09-11T06:48:53.774Z,42.60
2022-09-11T06:51:23.182Z,40.57
2022-09-11T06:53:58.095Z,44.50
2022-09-11T06:56:25.736Z,41.30
2022-09-11T06:58:52.885Z,45.57
2022-09-11T07:01:22.239Z,45.50
2022-09-11T07:03:53.679Z,39.20
2022-09-11T07:06:27.615Z,43.20
2022-09-11T07:09:01.558Z,33.83
2022-09-11T07:11:32.364Z,29.40
2022-09-11T07:14:05.813Z,32.60
2022-09-11T07:16:33.782Z,32.27
2022-09-11T07:19:01.377Z,31.00
2022-09-11T07:21:28.822Z,28.03
2022-09-11T07:24:00.024Z,30.37
2022-09-11T07:26:29.487Z,30.90
2022-09-11T07:28:58.305Z,25.70
2022-09-11T07:31:30.281Z,25.90
2022-09-11T07:33:57.593Z,30.87
2022-09-11T07:36:28.731Z,32.07
2022-09-11T07:38:56.422Z,25.83
2022-09-11T07:41:27.931Z,27.13
2022-09-11T07:44:00.203Z,24.27
2022-09-11T07:46:29.858Z,25.57
2022-09-11T07:48:57.271Z,23.77
2022-09-11T07:51:25.666Z,21.87
2022-09-11T07:53:54.304Z,23.50
2022-09-11T07:56:25.607Z,26.57
2022-09-11T07:58:55.105Z,23.13
2022-09-11T08:01:33.213Z,24.80
2022-09-11T08:04:07.270Z,22.90
2022-09-11T08:06:37.472Z,21.60
2022-09-11T08:09:14.698Z,23.40
2022-09-11T08:11:48.815Z,19.40
2022-09-11T08:14:17.601Z,17.97
2022-09-11T08:16:45.272Z,22.38
2022-09-11T08:19:19.571Z,18.45
2022-09-11T08:21:47.761Z,20.33
2022-09-11T08:24:17.109Z,19.17
2022-09-11T08:26:48.723Z,18.90
2022-09-11T08:29:16.309Z,16.87
2022-09-11T08:31:43.837Z,17.02
2022-09-11T08:34:11.118Z,20.52
2022-09-11T08:36:38.649Z,17.90
2022-09-11T08:39:05.769Z,15.40
2022-09-11T08:41:53.637Z,16.27
2022-09-11T08:44:30.984Z,16.13
2022-09-11T08:47:16.505Z,15.10
2022-09-11T08:49:55.186Z,15.77
2022-09-11T08:52:22.303Z,10.00
2022-09-11T08:54:50.543Z,11.27
2022-09-11T08:57:48.859Z,14.15
2022-09-11T09:00:32.046Z,10.57
2022-09-11T09:03:41.985Z,11.52
2022-09-11T09:07:01.456Z,10.57
2022-09-11T09:10:07.724Z,11.88
2022-09-11T09:13:08.458Z,17.33
2022-09-11T09:16:05.146Z,13.35
2022-09-11T09:18:48.814Z,12.35
2022-09-11T09:21:38.545Z,11.90
2022-09-11T09:24:21.185Z,11.07
2022-09-11T09:26:53.356Z,11.40
2022-09-11T09:29:36.036Z,13.05
2022-09-11T09:32:32.328Z,12.20
2022-09-11T09:35:10.817Z,12.90
2022-09-11T09:37:41.702Z,10.85
2022-09-11T09:40:10.917Z,12.45
2022-09-11T09:43:01.962Z,12.65
2022-09-11T09:45:43.754Z,12.05
2022-09-11T09:48:12.153Z,11.82
2022-09-11T09:50:43.900Z,9.95
2022-09-11T09:53:48.462Z,11.90
2022-09-11T09:56:19.228Z,10.13
2022-09-11T09:59:03.021Z,9.90
2022-09-11T10:01:48.287Z,11.10
2022-09-11T10:04:27.996Z,9.15
2022-09-11T10:07:11.339Z,9.23
2022-09-11T10:10:03.585Z,8.55
2022-09-11T10:12:34.781Z,7.70
2022-09-11T10:15:03.935Z,7.38
2022-09-11T10:17:33.329Z,6.70
2022-09-11T10:20:18.558Z,9.02
2022-09-11T10:22:46.354Z,10.27
2022-09-11T10:25:27.842Z,17.30
2022-09-11T10:28:17.319Z,10.93
2022-09-11T10:30:59.250Z,8.93
2022-09-11T10:33:38.383Z,11.68
2022-09-11T10:36:09.933Z,9.20
2022-09-11T10:38:48.126Z,13.13
2022-09-11T10:41:22.642Z,8.00
2022-09-11T10:44:12.003Z,9.02
2022-09-11T10:46:41.953Z,14.95
2022-09-11T10:49:23.279Z,6.32
2022-09-11T10:52:16.431Z,7.22
2022-09-11T10:55:15.732Z,11.40
2022-09-11T10:57:52.559Z,9.15
2022-09-11T11:00:30.094Z,8.43
2022-09-11T11:03:06.237Z,9.25
2022-09-11T11:05:54.979Z,5.93
2022-09-11T11:09:01.890Z,7.78
2022-09-11T11:12:09.754Z,8.18
2022-09-11T11:15:53.354Z,6.95
2022-09-11T11:18:50.138Z,9.15
2022-09-11T11:22:08.882Z,6.90
2022-09-11T11:25:03.273Z,9.02
2022-09-11T11:28:11.755Z,6.43
2022-09-11T11:30:51.436Z,10.23
2022-09-11T11:33:42.462Z,8.63
2022-09-11T11:36:40.862Z,6.45
2022-09-11T11:39:50.143Z,8.43
2022-09-11T11:42:31.226Z,4.88
2022-09-11T11:45:21.646Z,5.65
2022-09-11T11:47:51.334Z,5.32
2022-09-11T11:50:45.605Z,4.90
2022-09-11T11:53:19.732Z,4.40
2022-09-11T11:56:40.721Z,5.68
2022-09-11T11:59:20.432Z,3.95
2022-09-11T12:02:09.662Z,3.85
2022-09-11T12:04:55.708Z,2.13
2022-09-11T12:07:27.575Z,3.17
2022-09-11T12:09:57.432Z,3.40
2022-09-11T12:12:29.430Z,2.97
2022-09-11T12:15:10.239Z,3.72
2022-09-11T12:17:39.908Z,6.97
2022-09-11T12:20:43.482Z,4.50
2022-09-11T12:23:54.862Z,6.70
2022-09-11T12:26:27.469Z,4.38
2022-09-11T12:29:13.054Z,5.15
2022-09-11T12:31:51.749Z,3.72
2022-09-11T12:34:41.593Z,3.03
2022-09-11T12:37:25.214Z,4.30
2022-09-11T12:40:05.747Z,4.88
2022-09-11T12:42:32.645Z,3.95
2022-09-11T12:45:00.086Z,6.80
2022-09-11T12:47:39.687Z,2.70
2022-09-11T12:50:12.197Z,2.92
2022-09-11T12:52:45.246Z,6.38
2022-09-11T12:55:50.899Z,3.28
2022-09-11T12:58:18.832Z,6.07
2022-09-11T13:01:11.040Z,4.50
2022-09-11T13:03:49.892Z,5.20
2022-09-11T13:06:17.404Z,4.18
2022-09-11T13:09:01.291Z,4.88
2022-09-11T13:11:49.143Z,4.50
2022-09-11T13:14:47.666Z,4.25
2022-09-11T13:17:30.189Z,4.65
2022-09-11T13:20:21.902Z,2.72
2022-09-11T13:22:56.087Z,3.35
2022-09-11T13:25:27.907Z,3.75
2022-09-11T13:28:01.169Z,4.55
2022-09-11T13:30:28.329Z,4.75
2022-09-11T13:33:11.253Z,4.75
2022-09-11T13:35:43.673Z,3.33
2022-09-11T13:38:23.423Z,3.75
2022-09-11T13:41:08.128Z,3.10
2022-09-11T13:43:44.552Z,3.08
2022-09-11T13:46:32.330Z,4.03
2022-09-11T13:49:07.948Z,3.58
2022-09-11T13:51:39.231Z,3.55
2022-09-11T13:54:29.639Z,4.22
2022-09-11T13:56:56.354Z,4.43
2022-09-11T13:59:39.778Z,5.57
2022-09-11T14:02:24.122Z,4.07
2022-09-11T14:04:53.973Z,3.97
2022-09-11T14:07:26.463Z,3.13
2022-09-11T14:10:43.430Z,4.05
2022-09-11T14:13:35.512Z,2.63
2022-09-11T14:16:33.405Z,3.67
2022-09-11T14:19:14.782Z,2.13
2022-09-11T14:21:46.496Z,2.80
2022-09-11T14:27:02.414Z,4.40
2022-09-11T14:29:36.360Z,2.85
2022-09-11T14:32:37.210Z,3.22
2022-09-11T14:35:08.521Z,2.60
2022-09-11T14:37:45.701Z,3.88
2022-09-11T14:40:19.369Z,2.08
2022-09-11T14:42:47.243Z,2.72
2022-09-11T14:45:25.991Z,2.95
2022-09-11T14:47:53.515Z,1.85
2022-09-11T14:50:21.170Z,2.10
2022-09-11T14:52:48.120Z,2.47
2022-09-11T14:55:19.127Z,2.35
2022-09-11T14:57:46.704Z,2.28
2022-09-11T15:00:19.206Z,2.25
2022-09-11T15:02:47.081Z,2.08
2022-09-11T15:05:22.888Z,3.33
2022-09-11T15:07:50.060Z,2.72
2022-09-11T15:10:17.008Z,2.78
2022-09-11T15:12:44.669Z,4.97
2022-09-11T15:15:11.816Z,1.98
2022-09-11T15:17:39.957Z,2.35
2022-09-11T15:20:10.085Z,1.75
2022-09-11T15:22:38.362Z,2.30
2022-09-11T15:25:06.630Z,3.38
2022-09-11T15:27:34.338Z,1.33
2022-09-11T15:30:01.350Z,1.65
2022-09-11T15:32:28.470Z,3.55
2022-09-11T15:34:55.531Z,2.28
2022-09-11T15:37:23.629Z,2.05
2022-09-11T15:39:51.116Z,1.92
2022-09-11T15:42:19.268Z,2.50
2022-09-11T15:44:46.288Z,1.70
2022-09-11T15:47:13.964Z,4.03
2022-09-11T15:49:44.414Z,2.88
2022-09-11T15:52:12.482Z,3.03
2022-09-11T15:54:39.530Z,2.13
2022-09-11T15:57:07.585Z,2.55
2022-09-11T15:59:34.782Z,3.58
2022-09-11T16:02:01.856Z,3.45
2022-09-11T16:04:32.117Z,2.75
2022-09-11T16:06:59.661Z,2.33
2022-09-11T16:09:30.415Z,3.00
2022-09-11T16:12:00.201Z,3.20
2022-09-11T16:14:34.411Z,3.63
2022-09-11T16:17:05.411Z,3.65
2022-09-11T16:19:33.264Z,6.00
2022-09-11T16:22:04.214Z,3.85
2022-09-11T16:24:37.677Z,5.72
2022-09-11T16:27:09.849Z,4.22
2022-09-11T16:30:15.909Z,3.58
2022-09-11T16:32:31.872Z,6.72
2022-09-11T16:34:59.773Z,10.82
2022-09-11T16:37:28.290Z,10.63
2022-09-11T16:39:55.589Z,6.10
2022-09-11T16:42:22.674Z,6.30
2022-09-11T16:44:50.224Z,5.25
2022-09-11T16:47:18.175Z,5.63
2022-09-11T16:50:05.809Z,4.20
2022-09-11T16:52:32.672Z,5.47
2022-09-11T16:54:59.925Z,5.50
2022-09-11T16:57:29.977Z,6.50
2022-09-11T16:59:57.242Z,4.35
2022-09-11T17:02:24.230Z,7.13
2022-09-11T17:04:51.290Z,4.35
2022-09-11T17:07:18.755Z,8.88
2022-09-11T17:09:48.737Z,3.25
2022-09-11T17:12:17.764Z,6.47
2022-09-11T17:14:44.743Z,6.68
2022-09-11T17:17:11.777Z,6.50
2022-09-11T17:19:38.989Z,7.00
2022-09-11T17:22:06.592Z,10.52
2022-09-11T17:24:33.793Z,7.47
2022-09-11T17:27:03.575Z,7.38
2022-09-11T17:29:30.561Z,9.83
2022-09-11T17:32:16.755Z,9.37
2022-09-11T17:34:44.578Z,12.98
2022-09-11T17:37:11.541Z,7.60
2022-09-11T17:39:38.685Z,7.73
2022-09-11T17:42:11.017Z,6.90
2022-09-11T17:44:41.237Z,5.77
2022-09-11T17:47:08.232Z,11.38
2022-09-11T17:49:35.177Z,5.68
2022-09-11T17:52:02.481Z,6.70
2022-09-11T17:54:29.506Z,6.20
2022-09-11T17:56:58.026Z,8.23
2022-09-11T17:59:25.095Z,16.13
2022-09-11T18:01:52.179Z,7.43
2022-09-11T18:04:19.173Z,7.20
2022-09-11T18:06:46.670Z,5.97
2022-09-11T18:09:19.568Z,6.28
2022-09-11T18:11:51.126Z,7.37
2022-09-11T18:14:19.516Z,5.40
2022-09-11T18:16:47.813Z,7.60
2022-09-11T18:19:20.107Z,9.07
2022-09-11T18:21:50.348Z,8.67
2022-09-11T18:24:20.085Z,8.60
2022-09-11T18:26:57.207Z,8.60
2022-09-11T18:29:27.073Z,11.23
2022-09-11T18:31:54.620Z,10.47
2022-09-11T18:34:27.567Z,9.67
2022-09-11T18:36:54.704Z,8.17
2022-09-11T18:39:22.334Z,10.83
2022-09-11T18:41:52.462Z,13.70
2022-09-11T18:44:22.562Z,10.10
2022-09-11T18:46:54.446Z,8.83
2022-09-11T18:49:22.530Z,10.87
2022-09-11T18:51:49.666Z,14.70
2022-09-11T18:54:23.161Z,14.47
2022-09-11T18:56:51.022Z,12.63
2022-09-11T18:59:19.338Z,13.17
2022-09-11T19:01:46.534Z,12.40
2022-09-11T19:04:14.619Z,15.03
2022-09-11T19:06:41.662Z,19.67
2022-09-11T19:09:12.608Z,14.00
2022-09-11T19:11:40.785Z,16.50
2022-09-11T19:14:11.188Z,13.17
2022-09-11T19:16:39.468Z,12.23
2022-09-11T19:19:07.997Z,22.20
2022-09-11T19:21:36.288Z,20.70
2022-09-11T19:24:03.462Z,15.33
2022-09-11T19:26:38.863Z,23.13
2022-09-11T19:29:12.484Z,20.27
2022-09-11T19:31:40.412Z,21.07
2022-09-11T19:34:11.805Z,22.40
2022-09-11T19:36:41.046Z,29.33
2022-09-11T19:39:10.344Z,22.03
2022-09-11T19:41:39.789Z,21.87
2022-09-11T19:44:12.261Z,19.63
2022-09-11T19:46:40.943Z,24.00
2022-09-11T19:49:09.230Z,25.40
2022-09-11T19:51:44.852Z,21.20
2022-09-11T19:54:14.285Z,28.70
2022-09-11T19:56:42.430Z,24.60
2022-09-11T19:59:09.835Z,22.80
2022-09-11T20:01:37.458Z,28.63
2022-09-11T20:04:05.440Z,24.30
2022-09-11T20:06:35.487Z,31.20
2022-09-11T20:11:51.731Z,29.27
2022-09-11T20:14:18.779Z,25.33
2022-09-11T20:16:45.834Z,28.57
2022-09-11T20:19:14.728Z,30.10
2022-09-11T20:21:41.767Z,30.47
2022-09-11T20:24:09.201Z,17.60
2022-09-11T20:26:36.472Z,20.97
2022-09-11T20:29:13.711Z,28.43
2022-09-11T20:31:47.863Z,32.13
2022-09-11T20:34:18.166Z,25.93
2022-09-11T20:36:45.606Z,32.80
2022-09-11T20:39:14.103Z,24.43
2022-09-11T20:41:41.158Z,26.07
2022-09-11T20:44:08.294Z,27.50
2022-09-11T20:46:35.413Z,29.93
2022-09-11T20:49:03.978Z,27.10
2022-09-11T20:51:32.099Z,28.33
2022-09-11T20:54:00.483Z,27.47
2022-09-11T20:56:28.282Z,31.33
2022-09-11T20:58:55.729Z,28.43
2022-09-11T21:01:34.251Z,32.77
2022-09-11T21:04:04.462Z,36.30
2022-09-11T21:06:34.826Z,28.23
2022-09-11T21:09:10.923Z,20.30
2022-09-11T21:11:40.029Z,19.10
2022-09-11T21:14:07.490Z,20.63
2022-09-11T21:16:34.624Z,17.70
2022-09-11T21:19:03.253Z,20.20
2022-09-11T21:21:32.588Z,18.47
2022-09-11T21:24:04.043Z,21.47
2022-09-11T21:26:33.242Z,17.37
2022-09-11T21:29:05.707Z,17.40
2022-09-11T21:31:34.090Z,16.57
2022-09-11T21:34:02.154Z,15.93
2022-09-11T21:36:29.399Z,11.70
2022-09-11T21:38:56.393Z,9.47
2022-09-11T21:41:23.339Z,11.77
2022-09-11T21:43:50.282Z,9.83
2022-09-11T21:46:17.636Z,7.27
2022-09-11T21:48:44.675Z,6.97
2022-09-11T21:51:19.908Z,10.77
2022-09-11T21:53:49.735Z,8.80
2022-09-11T21:56:29.374Z,6.63
2022-09-11T21:58:57.285Z,8.83
2022-09-11T22:01:27.006Z,9.67
2022-09-11T22:03:54.818Z,8.20
2022-09-11T22:06:24.379Z,8.20
2022-09-11T22:08:53.330Z,7.90
2022-09-11T22:11:21.004Z,8.53
2022-09-11T22:13:48.036Z,6.40
2022-09-11T22:16:19.044Z,6.57
2022-09-11T22:18:53.299Z,9.53
2022-09-11T22:21:20.318Z,8.67
2022-09-11T22:23:47.362Z,7.10
2022-09-11T22:26:21.048Z,7.20
2022-09-11T22:28:48.296Z,9.20
2022-09-11T22:31:24.369Z,7.17
2022-09-11T22:33:53.657Z,7.53
2022-09-11T22:36:27.822Z,10.67
2022-09-11T22:38:55.735Z,9.13
2022-09-11T22:41:23.482Z,7.93
2022-09-11T22:43:50.640Z,12.00
2022-09-11T22:46:20.643Z,11.60
2022-09-11T22:48:48.538Z,9.43
2022-09-11T22:51:16.586Z,8.53
2022-09-11T22:53:43.849Z,9.33
2022-09-11T22:56:11.356Z,9.27
2022-09-11T22:58:38.572Z,7.93
2022-09-11T23:01:09.771Z,10.13
2022-09-11T23:03:37.187Z,9.53
2022-09-11T23:06:23.545Z,10.07
2022-09-11T23:08:50.736Z,7.20
2022-09-11T23:11:19.944Z,8.63
2022-09-11T23:13:48.544Z,8.73
2022-09-11T23:16:22.826Z,8.13
2022-09-11T23:18:59.693Z,7.13
2022-09-11T23:21:28.346Z,7.70
2022-09-11T23:23:58.062Z,9.43
2022-09-11T23:26:27.947Z,8.93
2022-09-11T23:28:55.754Z,10.13
2022-09-11T23:31:27.814Z,12.27
2022-09-11T23:33:59.092Z,9.40
2022-09-11T23:36:28.548Z,6.00
2022-09-11T23:38:56.101Z,6.73
2022-09-11T23:41:23.877Z,6.03
2022-09-11T23:43:51.307Z,8.07
2022-09-11T23:46:19.074Z,7.03
2022-09-11T23:48:46.649Z,6.90
2022-09-11T23:51:15.530Z,8.20
2022-09-11T23:53:45.213Z,8.83
2022-09-11T23:56:14.410Z,10.03
2022-09-11T23:58:42.126Z,10.27
